sensor_id;sensor_type;location;lat;lon;timestamp;pressure;altitude;pressure_sealevel;temperature;humidity
49044;BME280;34860;48.066;14.124;2023-04-21T00:02:02;96260.00;;;9.92;66.99
49044;BME280;34860;48.066;14.124;2023-04-21T00:04:50;96258.16;;;9.89;67.01
49044;BME280;34860;48.066;14.124;2023-04-21T00:07:40;96254.25;;;9.87;67.10
49044;BME280;34860;48.066;14.124;2023-04-21T00:10:31;96246.81;;;9.84;67.05
49044;BME280;34860;48.066;14.124;2023-04-21T00:13:20;96259.09;;;9.82;66.94
49044;BME280;34860;48.066;14.124;2023-04-21T00:16:09;96248.56;;;9.77;66.94
49044;BME280;34860;48.066;14.124;2023-04-21T00:18:59;96245.47;;;9.75;66.96
49044;BME280;34860;48.066;14.124;2023-04-21T00:21:58;96247.13;;;9.73;66.94
49044;BME280;34860;48.066;14.124;2023-04-21T00:24:47;96246.78;;;9.71;66.96
49044;BME280;34860;48.066;14.124;2023-04-21T00:27:39;96236.13;;;9.69;67.06
49044;BME280;34860;48.066;14.124;2023-04-21T00:30:29;96243.31;;;9.67;67.06
49044;BME280;34860;48.066;14.124;2023-04-21T00:33:19;96239.00;;;9.66;67.12
49044;BME280;34860;48.066;14.124;2023-04-21T00:36:08;96235.13;;;9.63;67.07
49044;BME280;34860;48.066;14.124;2023-04-21T00:38:58;96244.22;;;9.63;67.00
49044;BME280;34860;48.066;14.124;2023-04-21T00:41:48;96232.44;;;9.59;67.00
49044;BME280;34860;48.066;14.124;2023-04-21T00:44:43;96239.22;;;9.58;66.99
49044;BME280;34860;48.066;14.124;2023-04-21T00:47:31;96237.31;;;9.55;67.16
49044;BME280;34860;48.066;14.124;2023-04-21T00:50:23;96225.13;;;9.53;67.05
49044;BME280;34860;48.066;14.124;2023-04-21T00:53:13;96231.88;;;9.52;67.02
49044;BME280;34860;48.066;14.124;2023-04-21T00:56:04;96230.75;;;9.49;66.89
49044;BME280;34860;48.066;14.124;2023-04-21T00:58:54;96220.53;;;9.46;67.09
49044;BME280;34860;48.066;14.124;2023-04-21T01:01:46;96227.31;;;9.45;67.06
49044;BME280;34860;48.066;14.124;2023-04-21T01:04:35;96228.97;;;9.42;67.14
49044;BME280;34860;48.066;14.124;2023-04-21T01:07:29;96230.19;;;9.41;67.13
49044;BME280;34860;48.066;14.124;2023-04-21T01:10:18;96215.22;;;9.39;67.08
49044;BME280;34860;48.066;14.124;2023-04-21T01:13:10;96225.53;;;9.38;67.02
49044;BME280;34860;48.066;14.124;2023-04-21T01:16:00;96238.59;;;9.38;67.15
49044;BME280;34860;48.066;14.124;2023-04-21T01:18:50;96233.50;;;9.36;67.11
49044;BME280;34860;48.066;14.124;2023-04-21T01:21:43;96237.94;;;9.34;67.00
49044;BME280;34860;48.066;14.124;2023-04-21T01:24:37;96231.59;;;9.33;67.15
49044;BME280;34860;48.066;14.124;2023-04-21T01:27:26;96247.47;;;9.33;67.02
49044;BME280;34860;48.066;14.124;2023-04-21T01:30:14;96236.81;;;9.31;67.11
49044;BME280;34860;48.066;14.124;2023-04-21T01:33:03;96236.91;;;9.27;67.11
49044;BME280;34860;48.066;14.124;2023-04-21T01:35:53;96237.34;;;9.26;67.16
49044;BME280;34860;48.066;14.124;2023-04-21T01:38:44;96231.91;;;9.22;67.17
49044;BME280;34860;48.066;14.124;2023-04-21T01:41:37;96241.44;;;9.21;67.18
49044;BME280;34860;48.066;14.124;2023-04-21T01:44:28;96249.88;;;9.18;67.08
49044;BME280;34860;48.066;14.124;2023-04-21T01:47:17;96238.41;;;9.16;67.04
49044;BME280;34860;48.066;14.124;2023-04-21T01:50:06;96240.53;;;9.12;67.06
49044;BME280;34860;48.066;14.124;2023-04-21T01:52:55;96237.06;;;9.07;67.09
49044;BME280;34860;48.066;14.124;2023-04-21T01:55:47;96239.16;;;9.03;67.18
49044;BME280;34860;48.066;14.124;2023-04-21T01:58:37;96239.25;;;9.00;67.16
49044;BME280;34860;48.066;14.124;2023-04-21T02:01:27;96252.44;;;8.96;67.20
49044;BME280;34860;48.066;14.124;2023-04-21T02:04:18;96250.09;;;8.94;67.21
49044;BME280;34860;48.066;14.124;2023-04-21T02:07:08;96239.44;;;8.93;67.27
49044;BME280;34860;48.066;14.124;2023-04-21T02:09:59;96245.44;;;8.91;67.23
49044;BME280;34860;48.066;14.124;2023-04-21T02:12:55;96240.75;;;8.88;67.34
49044;BME280;34860;48.066;14.124;2023-04-21T02:15:44;96242.38;;;8.85;67.27
49044;BME280;34860;48.066;14.124;2023-04-21T02:18:32;96247.16;;;8.85;67.18
49044;BME280;34860;48.066;14.124;2023-04-21T02:21:26;96244.06;;;8.83;67.17
49044;BME280;34860;48.066;14.124;2023-04-21T02:24:15;96240.97;;;8.81;67.06
49044;BME280;34860;48.066;14.124;2023-04-21T02:27:05;96246.50;;;8.81;66.96
49044;BME280;34860;48.066;14.124;2023-04-21T02:29:56;96252.47;;;8.79;66.87
49044;BME280;34860;48.066;14.124;2023-04-21T02:32:45;96243.38;;;8.79;67.05
49044;BME280;34860;48.066;14.124;2023-04-21T02:35:34;96233.16;;;8.76;66.92
49044;BME280;34860;48.066;14.124;2023-04-21T02:38:23;96234.81;;;8.73;67.10
49044;BME280;34860;48.066;14.124;2023-04-21T02:41:11;96240.34;;;8.73;66.93
49044;BME280;34860;48.066;14.124;2023-04-21T02:44:04;96235.25;;;8.71;67.03
49044;BME280;34860;48.066;14.124;2023-04-21T02:46:55;96232.91;;;8.70;66.95
49044;BME280;34860;48.066;14.124;2023-04-21T02:49:47;96248.75;;;8.69;66.99
49044;BME280;34860;48.066;14.124;2023-04-21T02:52:38;96238.44;;;8.70;67.02
49044;BME280;34860;48.066;14.124;2023-04-21T02:55:27;96229.44;;;8.66;67.03
49044;BME280;34860;48.066;14.124;2023-04-21T02:58:16;96231.00;;;8.67;66.83
49044;BME280;34860;48.066;14.124;2023-04-21T03:01:05;96224.34;;;8.64;66.95
49044;BME280;34860;48.066;14.124;2023-04-21T03:03:57;96218.91;;;8.61;66.98
49044;BME280;34860;48.066;14.124;2023-04-21T03:06:50;96217.34;;;8.60;67.00
49044;BME280;34860;48.066;14.124;2023-04-21T03:09:38;96224.09;;;8.59;67.07
49044;BME280;34860;48.066;14.124;2023-04-21T03:12:27;96222.09;;;8.59;67.16
49044;BME280;34860;48.066;14.124;2023-04-21T03:15:16;96220.97;;;8.57;67.01
49044;BME280;34860;48.066;14.124;2023-04-21T03:18:06;96221.06;;;8.53;67.15
49044;BME280;34860;48.066;14.124;2023-04-21T03:21:00;96216.72;;;8.52;67.12
49044;BME280;34860;48.066;14.124;2023-04-21T03:23:48;96216.06;;;8.48;67.15
49044;BME280;34860;48.066;14.124;2023-04-21T03:26:39;96213.72;;;8.46;67.23
49044;BME280;34860;48.066;14.124;2023-04-21T03:29:29;96221.69;;;8.44;67.21
49044;BME280;34860;48.066;14.124;2023-04-21T03:32:18;96224.06;;;8.42;67.28
49044;BME280;34860;48.066;14.124;2023-04-21T03:35:11;96218.63;;;8.39;67.19
49044;BME280;34860;48.066;14.124;2023-04-21T03:38:03;96210.75;;;8.37;67.32
49044;BME280;34860;48.066;14.124;2023-04-21T03:40:57;96217.94;;;8.34;67.26
49044;BME280;34860;48.066;14.124;2023-04-21T03:43:49;96219.91;;;8.34;67.44
49044;BME280;34860;48.066;14.124;2023-04-21T03:46:39;96208.59;;;8.28;67.38
49044;BME280;34860;48.066;14.124;2023-04-21T03:49:27;96211.00;;;8.26;67.52
49044;BME280;34860;48.066;14.124;2023-04-21T03:52:21;96220.88;;;8.27;67.36
49044;BME280;34860;48.066;14.124;2023-04-21T03:55:12;96216.63;;;8.23;67.44
49044;BME280;34860;48.066;14.124;2023-04-21T03:58:01;96217.06;;;8.21;67.36
49044;BME280;34860;48.066;14.124;2023-04-21T04:00:49;96226.59;;;8.20;67.50
49044;BME280;34860;48.066;14.124;2023-04-21T04:03:39;96221.50;;;8.18;67.57
49044;BME280;34860;48.066;14.124;2023-04-21T04:06:31;96221.13;;;8.16;67.44
49044;BME280;34860;48.066;14.124;2023-04-21T04:09:21;96222.34;;;8.15;67.50
49044;BME280;34860;48.066;14.124;2023-04-21T04:12:13;96221.22;;;8.13;67.47
49044;BME280;34860;48.066;14.124;2023-04-21T04:15:06;96215.34;;;8.11;67.50
49044;BME280;34860;48.066;14.124;2023-04-21T04:17:55;96216.97;;;8.08;67.77
49044;BME280;34860;48.066;14.124;2023-04-21T04:20:47;96218.59;;;8.06;67.55
49044;BME280;34860;48.066;14.124;2023-04-21T04:23:36;96227.38;;;8.04;67.70
49044;BME280;34860;48.066;14.124;2023-04-21T04:26:25;96225.03;;;8.03;67.65
49044;BME280;34860;48.066;14.124;2023-04-21T04:29:16;96222.69;;;8.01;67.51
49044;BME280;34860;48.066;14.124;2023-04-21T04:32:06;96222.31;;;7.99;67.54
49044;BME280;34860;48.066;14.124;2023-04-21T04:34:58;96231.84;;;7.98;67.70
49044;BME280;34860;48.066;14.124;2023-04-21T04:37:48;96232.28;;;7.96;67.58
49044;BME280;34860;48.066;14.124;2023-04-21T04:40:36;96245.31;;;7.96;67.54
49044;BME280;34860;48.066;14.124;2023-04-21T04:43:25;96242.56;;;7.96;67.53
49044;BME280;34860;48.066;14.124;2023-04-21T04:46:18;96240.22;;;7.94;67.44
49044;BME280;34860;48.066;14.124;2023-04-21T04:49:07;96238.25;;;7.95;67.48
49044;BME280;34860;48.066;14.124;2023-04-21T04:51:57;96245.75;;;7.94;67.55
49044;BME280;34860;48.066;14.124;2023-04-21T04:54:47;96241.78;;;7.95;67.30
49044;BME280;34860;48.066;14.124;2023-04-21T04:57:36;96235.81;;;7.97;67.22
49044;BME280;34860;48.066;14.124;2023-04-21T05:00:26;96238.59;;;7.97;67.45
49044;BME280;34860;48.066;14.124;2023-04-21T05:03:16;96242.13;;;7.97;67.48
49044;BME280;34860;48.066;14.124;2023-04-21T05:06:05;96252.75;;;7.99;67.41
49044;BME280;34860;48.066;14.124;2023-04-21T05:08:54;96244.84;;;8.01;67.33
49044;BME280;34860;48.066;14.124;2023-04-21T05:11:43;96252.72;;;8.03;67.39
49044;BME280;34860;48.066;14.124;2023-04-21T05:14:32;96246.75;;;8.04;67.27
49044;BME280;34860;48.066;14.124;2023-04-21T05:17:20;96253.38;;;8.07;67.35
49044;BME280;34860;48.066;14.124;2023-04-21T05:20:11;96255.28;;;8.10;67.26
49044;BME280;34860;48.066;14.124;2023-04-21T05:23:06;96262.31;;;8.14;67.29
49044;BME280;34860;48.066;14.124;2023-04-21T05:25:59;96258.25;;;8.19;67.20
49044;BME280;34860;48.066;14.124;2023-04-21T05:28:50;96258.94;;;8.23;67.18
49044;BME280;34860;48.066;14.124;2023-04-21T05:31:40;96263.19;;;8.28;67.16
49044;BME280;34860;48.066;14.124;2023-04-21T05:34:31;96267.41;;;8.32;66.94
49044;BME280;34860;48.066;14.124;2023-04-21T05:37:22;96265.69;;;8.39;67.13
49044;BME280;34860;48.066;14.124;2023-04-21T05:40:13;96264.69;;;8.49;66.93
49044;BME280;34860;48.066;14.124;2023-04-21T05:43:01;96264.69;;;8.65;66.83
49044;BME280;34860;48.066;14.124;2023-04-21T05:45:50;96267.34;;;8.85;66.63
49044;BME280;34860;48.066;14.124;2023-04-21T05:48:40;96271.13;;;9.08;66.54
49044;BME280;34860;48.066;14.124;2023-04-21T05:51:29;96269.22;;;9.34;66.25
49044;BME280;34860;48.066;14.124;2023-04-21T05:54:22;96276.28;;;9.64;66.03
49044;BME280;34860;48.066;14.124;2023-04-21T05:57:10;96277.78;;;9.95;65.68
49044;BME280;34860;48.066;14.124;2023-04-21T05:59:59;96276.78;;;10.27;65.56
49044;BME280;34860;48.066;14.124;2023-04-21T06:02:50;96274.69;;;10.57;65.26
49044;BME280;34860;48.066;14.124;2023-04-21T06:05:41;96277.31;;;10.86;65.14
49044;BME280;34860;48.066;14.124;2023-04-21T06:08:30;96275.25;;;11.13;65.07
49044;BME280;34860;48.066;14.124;2023-04-21T06:11:21;96283.94;;;11.37;64.89
49044;BME280;34860;48.066;14.124;2023-04-21T06:14:10;96283.44;;;11.51;64.99
49044;BME280;34860;48.066;14.124;2023-04-21T06:17:02;96279.47;;;11.61;65.05
49044;BME280;34860;48.066;14.124;2023-04-21T06:19:54;96279.97;;;11.69;65.14
49044;BME280;34860;48.066;14.124;2023-04-21T06:22:43;96277.41;;;11.75;65.28
49044;BME280;34860;48.066;14.124;2023-04-21T06:25:32;96279.28;;;11.78;65.55
49044;BME280;34860;48.066;14.124;2023-04-21T06:28:22;96272.47;;;11.79;65.49
49044;BME280;34860;48.066;14.124;2023-04-21T06:31:12;96278.81;;;11.79;65.65
49044;BME280;34860;48.066;14.124;2023-04-21T06:34:08;96285.16;;;11.80;65.67
49044;BME280;34860;48.066;14.124;2023-04-21T06:36:58;96279.59;;;11.80;66.03
49044;BME280;34860;48.066;14.124;2023-04-21T06:39:46;96281.94;;;11.81;65.92
49044;BME280;34860;48.066;14.124;2023-04-21T06:42:36;96275.13;;;11.82;65.99
49044;BME280;34860;48.066;14.124;2023-04-21T06:45:27;96276.22;;;11.85;65.83
49044;BME280;34860;48.066;14.124;2023-04-21T06:48:18;96270.66;;;11.85;66.11
49044;BME280;34860;48.066;14.124;2023-04-21T06:51:07;96270.66;;;11.85;66.17
49044;BME280;34860;48.066;14.124;2023-04-21T06:53:56;96268.22;;;11.87;66.24
49044;BME280;34860;48.066;14.124;2023-04-21T06:56:48;96268.97;;;11.88;66.20
49044;BME280;34860;48.066;14.124;2023-04-21T06:59:39;96272.06;;;11.90;66.16
49044;BME280;34860;48.066;14.124;2023-04-21T07:02:32;96271.63;;;11.91;66.23
49044;BME280;34860;48.066;14.124;2023-04-21T07:05:26;96270.72;;;11.94;66.28
49044;BME280;34860;48.066;14.124;2023-04-21T07:08:19;96271.38;;;11.98;66.17
49044;BME280;34860;48.066;14.124;2023-04-21T07:11:07;96276.03;;;12.02;66.18
49044;BME280;34860;48.066;14.124;2023-04-21T07:13:56;96271.91;;;12.06;66.12
49044;BME280;34860;48.066;14.124;2023-04-21T07:16:48;96283.50;;;12.14;65.88
49044;BME280;34860;48.066;14.124;2023-04-21T07:19:40;96283.25;;;12.21;65.90
49044;BME280;34860;48.066;14.124;2023-04-21T07:22:31;96286.53;;;12.29;65.94
49044;BME280;34860;48.066;14.124;2023-04-21T07:25:20;96276.34;;;12.35;66.00
49044;BME280;34860;48.066;14.124;2023-04-21T07:28:12;96283.97;;;12.44;65.85
49044;BME280;34860;48.066;14.124;2023-04-21T07:31:09;96279.66;;;12.52;65.67
49044;BME280;34860;48.066;14.124;2023-04-21T07:33:59;96275.34;;;12.60;65.86
49044;BME280;34860;48.066;14.124;2023-04-21T07:36:50;96274.59;;;12.69;65.65
49044;BME280;34860;48.066;14.124;2023-04-21T07:39:38;96275.09;;;12.77;65.64
49044;BME280;34860;48.066;14.124;2023-04-21T07:42:29;96277.88;;;12.86;65.78
49044;BME280;34860;48.066;14.124;2023-04-21T07:45:21;96277.88;;;12.95;65.49
49044;BME280;34860;48.066;14.124;2023-04-21T07:48:11;96278.69;;;13.05;65.48
49044;BME280;34860;48.066;14.124;2023-04-21T07:51:00;96276.69;;;13.15;65.28
49044;BME280;34860;48.066;14.124;2023-04-21T07:53:51;96272.34;;;13.23;65.34
49044;BME280;34860;48.066;14.124;2023-04-21T07:56:47;96279.94;;;13.32;65.42
49044;BME280;34860;48.066;14.124;2023-04-21T07:59:38;96279.97;;;13.41;65.24
49044;BME280;34860;48.066;14.124;2023-04-21T08:02:27;96282.78;;;13.50;65.18
49044;BME280;34860;48.066;14.124;2023-04-21T08:05:15;96282.78;;;13.59;65.20
49044;BME280;34860;48.066;14.124;2023-04-21T08:08:05;96285.53;;;13.69;65.21
49044;BME280;34860;48.066;14.124;2023-04-21T08:10:56;96287.69;;;13.83;65.04
49044;BME280;34860;48.066;14.124;2023-04-21T08:13:48;96288.13;;;13.91;65.22
49044;BME280;34860;48.066;14.124;2023-04-21T08:16:37;96280.50;;;14.01;65.05
49044;BME280;34860;48.066;14.124;2023-04-21T08:19:26;96281.44;;;14.07;64.98
49044;BME280;34860;48.066;14.124;2023-04-21T08:22:19;96287.75;;;14.16;65.20
49044;BME280;34860;48.066;14.124;2023-04-21T08:25:13;96285.72;;;14.26;64.91
49044;BME280;34860;48.066;14.124;2023-04-21T08:28:05;96279.78;;;14.33;64.92
49044;BME280;34860;48.066;14.124;2023-04-21T08:30:55;96287.34;;;14.42;64.85
49044;BME280;34860;48.066;14.124;2023-04-21T08:33:44;96280.19;;;14.50;64.84
49044;BME280;34860;48.066;14.124;2023-04-21T08:36:39;96280.59;;;14.58;64.65
49044;BME280;34860;48.066;14.124;2023-04-21T08:39:28;96278.28;;;14.66;64.80
49044;BME280;34860;48.066;14.124;2023-04-21T08:42:21;96274.66;;;14.75;64.74
49044;BME280;34860;48.066;14.124;2023-04-21T08:45:16;96274.63;;;14.84;64.76
49044;BME280;34860;48.066;14.124;2023-04-21T08:48:05;96273.78;;;14.93;64.76
49044;BME280;34860;48.066;14.124;2023-04-21T08:50:55;96276.03;;;15.03;64.59
49044;BME280;34860;48.066;14.124;2023-04-21T08:53:44;96270.41;;;15.13;64.41
49044;BME280;34860;48.066;14.124;2023-04-21T08:56:34;96267.03;;;15.23;64.55
49044;BME280;34860;48.066;14.124;2023-04-21T08:59:23;96271.78;;;15.32;64.47
49044;BME280;34860;48.066;14.124;2023-04-21T09:02:16;96273.25;;;15.42;64.37
49044;BME280;34860;48.066;14.124;2023-04-21T09:05:07;96269.16;;;15.53;64.32
49044;BME280;34860;48.066;14.124;2023-04-21T09:08:09;96268.59;;;15.64;64.36
49044;BME280;34860;48.066;14.124;2023-04-21T09:11:00;96269.75;;;15.72;64.42
49044;BME280;34860;48.066;14.124;2023-04-21T09:13:48;96265.34;;;15.80;64.30
49044;BME280;34860;48.066;14.124;2023-04-21T09:16:42;96268.53;;;15.88;64.39
49044;BME280;34860;48.066;14.124;2023-04-21T09:19:33;96262.81;;;15.97;64.34
49044;BME280;34860;48.066;14.124;2023-04-21T09:22:26;96258.41;;;16.05;64.38
49044;BME280;34860;48.066;14.124;2023-04-21T09:25:16;96264.34;;;16.13;64.27
49044;BME280;34860;48.066;14.124;2023-04-21T09:28:06;96263.78;;;16.24;64.13
49044;BME280;34860;48.066;14.124;2023-04-21T09:30:57;96261.63;;;16.33;64.21
49044;BME280;34860;48.066;14.124;2023-04-21T09:33:47;96260.75;;;16.42;64.26
49044;BME280;34860;48.066;14.124;2023-04-21T09:36:41;96259.69;;;16.55;64.21
49044;BME280;34860;48.066;14.124;2023-04-21T09:39:31;96255.75;;;16.67;64.15
49044;BME280;34860;48.066;14.124;2023-04-21T09:42:32;96256.72;;;16.79;63.99
49044;BME280;34860;48.066;14.124;2023-04-21T09:45:26;96252.03;;;16.91;63.86
49044;BME280;34860;48.066;14.124;2023-04-21T09:48:23;96240.97;;;17.02;63.72
49044;BME280;34860;48.066;14.124;2023-04-21T09:51:18;96259.50;;;17.14;63.67
49044;BME280;34860;48.066;14.124;2023-04-21T09:54:17;96250.44;;;17.25;63.64
49044;BME280;34860;48.066;14.124;2023-04-21T09:57:12;96246.00;;;17.39;63.60
49044;BME280;34860;48.066;14.124;2023-04-21T10:00:03;96250.47;;;17.51;63.77
49044;BME280;34860;48.066;14.124;2023-04-21T10:02:57;96240.91;;;17.64;63.55
49044;BME280;34860;48.066;14.124;2023-04-21T10:05:49;96244.41;;;17.79;63.31
49044;BME280;34860;48.066;14.124;2023-04-21T10:08:38;96247.59;;;17.92;63.50
49044;BME280;34860;48.066;14.124;2023-04-21T10:11:29;96236.47;;;18.04;63.38
49044;BME280;34860;48.066;14.124;2023-04-21T10:14:20;96249.13;;;18.20;63.27
49044;BME280;34860;48.066;14.124;2023-04-21T10:17:09;96250.47;;;18.30;63.41
49044;BME280;34860;48.066;14.124;2023-04-21T10:19:59;96241.63;;;18.43;63.29
49044;BME280;34860;48.066;14.124;2023-04-21T10:22:56;96236.09;;;18.54;63.26
49044;BME280;34860;48.066;14.124;2023-04-21T10:25:47;96232.56;;;18.65;63.10
49044;BME280;34860;48.066;14.124;2023-04-21T10:28:42;96229.03;;;18.76;62.95
49044;BME280;34860;48.066;14.124;2023-04-21T10:31:33;96238.09;;;18.85;63.06
49044;BME280;34860;48.066;14.124;2023-04-21T10:34:28;96235.06;;;18.95;63.01
49044;BME280;34860;48.066;14.124;2023-04-21T10:37:17;96238.94;;;19.03;62.84
49044;BME280;34860;48.066;14.124;2023-04-21T10:40:07;96228.47;;;19.09;63.30
49044;BME280;34860;48.066;14.124;2023-04-21T10:43:43;96230.03;;;19.16;63.07
49044;BME280;34860;48.066;14.124;2023-04-21T10:46:38;96229.56;;;19.23;63.03
49044;BME280;34860;48.066;14.124;2023-04-21T10:49:29;96231.38;;;19.32;62.90
49044;BME280;34860;48.066;14.124;2023-04-21T10:52:21;96235.53;;;19.42;62.87
49044;BME280;34860;48.066;14.124;2023-04-21T10:55:18;96232.47;;;19.51;62.86
49044;BME280;34860;48.066;14.124;2023-04-21T10:58:14;96226.88;;;19.63;62.86
49044;BME280;34860;48.066;14.124;2023-04-21T11:01:06;96227.66;;;19.74;62.80
49044;BME280;34860;48.066;14.124;2023-04-21T11:03:57;96229.75;;;19.85;62.57
49044;BME280;34860;48.066;14.124;2023-04-21T11:07:04;96225.69;;;19.98;62.65
49044;BME280;34860;48.066;14.124;2023-04-21T11:09:58;96225.94;;;20.11;62.50
49044;BME280;34860;48.066;14.124;2023-04-21T11:12:50;96228.25;;;20.24;62.46
49044;BME280;34860;48.066;14.124;2023-04-21T11:15:39;96220.03;;;20.31;62.18
49044;BME280;34860;48.066;14.124;2023-04-21T11:18:43;96219.00;;;20.40;62.40
49044;BME280;34860;48.066;14.124;2023-04-21T11:21:32;96227.47;;;20.46;62.60
49044;BME280;34860;48.066;14.124;2023-04-21T11:24:22;96218.22;;;20.51;62.46
49044;BME280;34860;48.066;14.124;2023-04-21T11:27:14;96224.63;;;20.57;62.47
49044;BME280;34860;48.066;14.124;2023-04-21T11:30:04;96214.88;;;20.64;62.36
49044;BME280;34860;48.066;14.124;2023-04-21T11:32:56;96223.84;;;20.74;62.46
49044;BME280;34860;48.066;14.124;2023-04-21T11:35:46;96215.34;;;20.85;62.33
49044;BME280;34860;48.066;14.124;2023-04-21T11:38:42;96215.59;;;20.93;62.30
49044;BME280;34860;48.066;14.124;2023-04-21T11:41:31;96218.88;;;21.02;62.27
49044;BME280;34860;48.066;14.124;2023-04-21T11:44:31;96214.50;;;21.13;62.30
49044;BME280;34860;48.066;14.124;2023-04-21T11:47:21;96212.38;;;21.25;62.25
49044;BME280;34860;48.066;14.124;2023-04-21T11:50:28;96212.03;;;21.39;62.21
49044;BME280;34860;48.066;14.124;2023-04-21T11:53:22;96209.47;;;21.53;62.13
49044;BME280;34860;48.066;14.124;2023-04-21T11:56:10;96211.16;;;21.67;61.91
49044;BME280;34860;48.066;14.124;2023-04-21T11:59:05;96205.38;;;21.84;61.95
49044;BME280;34860;48.066;14.124;2023-04-21T12:01:55;96213.25;;;22.03;61.76
49044;BME280;34860;48.066;14.124;2023-04-21T12:04:56;96203.56;;;22.23;61.75
49044;BME280;34860;48.066;14.124;2023-04-21T12:07:45;96206.25;;;22.45;61.50
49044;BME280;34860;48.066;14.124;2023-04-21T12:10:45;96203.19;;;22.68;61.45
49044;BME280;34860;48.066;14.124;2023-04-21T12:13:33;96213.50;;;22.90;61.35
49044;BME280;34860;48.066;14.124;2023-04-21T12:16:23;96210.22;;;23.11;61.45
49044;BME280;34860;48.066;14.124;2023-04-21T12:19:21;96204.06;;;23.31;61.02
49044;BME280;34860;48.066;14.124;2023-04-21T12:22:10;96201.22;;;23.50;61.06
49044;BME280;34860;48.066;14.124;2023-04-21T12:25:03;96199.47;;;23.66;61.13
49044;BME280;34860;48.066;14.124;2023-04-21T12:27:56;96191.50;;;23.84;61.06
49044;BME280;34860;48.066;14.124;2023-04-21T12:30:45;96195.13;;;23.98;60.97
49044;BME280;34860;48.066;14.124;2023-04-21T12:33:33;96197.50;;;24.13;60.77
49044;BME280;34860;48.066;14.124;2023-04-21T12:36:24;96188.25;;;24.25;60.94
49044;BME280;34860;48.066;14.124;2023-04-21T12:39:14;96188.50;;;24.41;60.49
49044;BME280;34860;48.066;14.124;2023-04-21T12:42:05;96189.28;;;24.55;60.25
49044;BME280;34860;48.066;14.124;2023-04-21T12:44:56;96181.59;;;24.69;60.50
49044;BME280;34860;48.066;14.124;2023-04-21T12:47:45;96176.91;;;24.84;60.52
49044;BME280;34860;48.066;14.124;2023-04-21T12:50:33;96168.81;;;25.02;60.04
49044;BME280;34860;48.066;14.124;2023-04-21T12:53:22;96180.06;;;25.21;59.98
49044;BME280;34860;48.066;14.124;2023-04-21T12:56:14;96167.59;;;25.37;60.17
49044;BME280;34860;48.066;14.124;2023-04-21T12:59:05;96172.47;;;25.50;60.07
49044;BME280;34860;48.066;14.124;2023-04-21T13:01:55;96165.53;;;25.59;59.92
49044;BME280;34860;48.066;14.124;2023-04-21T13:04:44;96176.06;;;25.64;59.59
49044;BME280;34860;48.066;14.124;2023-04-21T13:07:33;96165.44;;;25.65;60.01
49044;BME280;34860;48.066;14.124;2023-04-21T13:10:21;96175.28;;;25.64;59.70
49044;BME280;34860;48.066;14.124;2023-04-21T13:13:14;96168.19;;;25.57;59.76
49044;BME280;34860;48.066;14.124;2023-04-21T13:16:05;96167.00;;;25.52;59.80
49044;BME280;34860;48.066;14.124;2023-04-21T13:18:57;96161.75;;;25.43;59.65
49044;BME280;34860;48.066;14.124;2023-04-21T13:21:46;96164.75;;;25.37;59.81
49044;BME280;34860;48.066;14.124;2023-04-21T13:24:36;96156.31;;;25.32;59.52
49044;BME280;34860;48.066;14.124;2023-04-21T13:27:24;96162.78;;;25.32;59.86
49044;BME280;34860;48.066;14.124;2023-04-21T13:30:14;96154.47;;;25.34;59.62
49044;BME280;34860;48.066;14.124;2023-04-21T13:33:03;96162.53;;;25.44;59.82
49044;BME280;34860;48.066;14.124;2023-04-21T13:35:54;96145.41;;;25.57;59.60
49044;BME280;34860;48.066;14.124;2023-04-21T13:38:44;96149.41;;;25.75;59.26
49044;BME280;34860;48.066;14.124;2023-04-21T13:41:35;96140.13;;;25.96;59.29
49044;BME280;34860;48.066;14.124;2023-04-21T13:44:23;96136.75;;;26.18;59.04
49044;BME280;34860;48.066;14.124;2023-04-21T13:47:14;96137.91;;;26.44;58.58
49044;BME280;34860;48.066;14.124;2023-04-21T13:50:03;96134.88;;;26.71;58.44
49044;BME280;34860;48.066;14.124;2023-04-21T13:52:54;96139.81;;;26.99;58.26
49044;BME280;34860;48.066;14.124;2023-04-21T13:55:44;96135.38;;;27.27;58.15
49044;BME280;34860;48.066;14.124;2023-04-21T13:58:36;96130.53;;;27.50;58.17
49044;BME280;34860;48.066;14.124;2023-04-21T14:01:25;96128.69;;;27.76;57.91
49044;BME280;34860;48.066;14.124;2023-04-21T14:04:14;96129.53;;;28.00;57.94
49044;BME280;34860;48.066;14.124;2023-04-21T14:07:03;96122.31;;;28.22;57.58
49044;BME280;34860;48.066;14.124;2023-04-21T14:09:53;96126.31;;;28.50;57.29
49044;BME280;34860;48.066;14.124;2023-04-21T14:12:43;96132.59;;;28.71;57.28
49044;BME280;34860;48.066;14.124;2023-04-21T14:15:33;96128.38;;;28.88;57.09
49044;BME280;34860;48.066;14.124;2023-04-21T14:18:23;96128.91;;;29.02;57.06
49044;BME280;34860;48.066;14.124;2023-04-21T14:21:12;96125.84;;;29.07;57.01
49044;BME280;34860;48.066;14.124;2023-04-21T14:24:00;96128.16;;;29.09;56.88
49044;BME280;34860;48.066;14.124;2023-04-21T14:26:55;96118.22;;;29.02;57.02
49044;BME280;34860;48.066;14.124;2023-04-21T14:29:44;96114.84;;;28.88;57.23
49044;BME280;34860;48.066;14.124;2023-04-21T14:32:33;96120.22;;;28.69;57.14
49044;BME280;34860;48.066;14.124;2023-04-21T14:35:21;96116.41;;;28.43;57.59
49044;BME280;34860;48.066;14.124;2023-04-21T14:38:11;96112.41;;;28.15;57.58
49044;BME280;34860;48.066;14.124;2023-04-21T14:41:00;96104.16;;;27.81;57.62
49044;BME280;34860;48.066;14.124;2023-04-21T14:43:51;96098.75;;;27.46;57.99
49044;BME280;34860;48.066;14.124;2023-04-21T14:46:48;96107.34;;;27.10;58.02
49044;BME280;34860;48.066;14.124;2023-04-21T14:49:42;96101.09;;;26.75;58.24
49044;BME280;34860;48.066;14.124;2023-04-21T14:52:31;96095.72;;;26.42;58.38
49044;BME280;34860;48.066;14.124;2023-04-21T14:55:20;96092.44;;;26.09;58.16
49044;BME280;34860;48.066;14.124;2023-04-21T14:58:09;96089.31;;;25.79;58.49
49044;BME280;34860;48.066;14.124;2023-04-21T15:00:59;96084.63;;;25.47;58.21